sensor_id;sensor_type;location;lat;lon;timestamp;P1;durP1;ratioP1;P2;durP2;ratioP2
75272;SDS011;63869;52.344;16.928;2023-05-10T00:01:15;6.95;;;3.80;;
75272;SDS011;63869;52.344;16.928;2023-05-10T00:03:41;6.57;;;4.03;;
75272;SDS011;63869;52.344;16.928;2023-05-10T00:06:06;6.63;;;3.70;;
75272;SDS011;63869;52.344;16.928;2023-05-10T00:08:31;7.13;;;3.45;;
75272;SDS011;63869;52.344;16.928;2023-05-10T00:10:57;7.93;;;3.60;;
75272;SDS011;63869;52.344;16.928;2023-05-10T00:13:22;8.75;;;3.75;;
75272;SDS011;63869;52.344;16.928;2023-05-10T00:15:47;6.82;;;3.83;;
75272;SDS011;63869;52.344;16.928;2023-05-10T00:18:13;6.40;;;3.78;;
75272;SDS011;63869;52.344;16.928;2023-05-10T00:20:38;5.35;;;3.78;;
75272;SDS011;63869;52.344;16.928;2023-05-10T00:23:03;7.05;;;3.80;;
75272;SDS011;63869;52.344;16.928;2023-05-10T00:25:28;9.43;;;3.90;;
75272;SDS011;63869;52.344;16.928;2023-05-10T00:27:54;7.35;;;3.70;;
75272;SDS011;63869;52.344;16.928;2023-05-10T00:30:22;7.75;;;3.85;;
75272;SDS011;63869;52.344;16.928;2023-05-10T00:32:47;7.18;;;3.50;;
75272;SDS011;63869;52.344;16.928;2023-05-10T00:35:14;7.47;;;3.60;;
75272;SDS011;63869;52.344;16.928;2023-05-10T00:37:40;6.43;;;3.45;;
75272;SDS011;63869;52.344;16.928;2023-05-10T00:40:06;6.80;;;3.70;;
75272;SDS011;63869;52.344;16.928;2023-05-10T00:42:31;5.40;;;3.42;;
75272;SDS011;63869;52.344;16.928;2023-05-10T00:44:57;8.77;;;3.60;;
75272;SDS011;63869;52.344;16.928;2023-05-10T00:47:22;6.72;;;3.55;;
75272;SDS011;63869;52.344;16.928;2023-05-10T00:49:48;6.28;;;3.50;;
75272;SDS011;63869;52.344;16.928;2023-05-10T00:52:13;6.85;;;3.60;;
75272;SDS011;63869;52.344;16.928;2023-05-10T00:54:39;7.95;;;3.72;;
75272;SDS011;63869;52.344;16.928;2023-05-10T00:57:04;6.22;;;3.83;;
75272;SDS011;63869;52.344;16.928;2023-05-10T00:59:29;7.32;;;4.28;;
75272;SDS011;63869;52.344;16.928;2023-05-10T01:01:55;7.85;;;3.40;;
75272;SDS011;63869;52.344;16.928;2023-05-10T01:04:21;6.38;;;3.53;;
75272;SDS011;63869;52.344;16.928;2023-05-10T01:06:50;6.03;;;3.30;;
75272;SDS011;63869;52.344;16.928;2023-05-10T01:09:16;6.43;;;3.83;;
75272;SDS011;63869;52.344;16.928;2023-05-10T01:11:42;7.32;;;3.60;;
75272;SDS011;63869;52.344;16.928;2023-05-10T01:14:08;8.00;;;3.47;;
75272;SDS011;63869;52.344;16.928;2023-05-10T01:16:36;6.57;;;3.50;;
75272;SDS011;63869;52.344;16.928;2023-05-10T01:19:04;5.95;;;3.50;;
75272;SDS011;63869;52.344;16.928;2023-05-10T01:27:02;6.63;;;3.58;;
75272;SDS011;63869;52.344;16.928;2023-05-10T01:34:35;7.65;;;3.95;;
75272;SDS011;63869;52.344;16.928;2023-05-10T01:37:29;9.57;;;3.60;;
75272;SDS011;63869;52.344;16.928;2023-05-10T01:40:03;7.03;;;3.88;;
75272;SDS011;63869;52.344;16.928;2023-05-10T01:42:40;7.05;;;3.42;;
75272;SDS011;63869;52.344;16.928;2023-05-10T01:45:31;6.72;;;3.78;;
75272;SDS011;63869;52.344;16.928;2023-05-10T01:48:07;6.45;;;3.70;;
75272;SDS011;63869;52.344;16.928;2023-05-10T01:50:35;5.88;;;3.63;;
75272;SDS011;63869;52.344;16.928;2023-05-10T01:53:02;7.20;;;4.05;;
75272;SDS011;63869;52.344;16.928;2023-05-10T01:55:32;5.95;;;3.60;;
75272;SDS011;63869;52.344;16.928;2023-05-10T01:58:06;7.95;;;4.00;;
75272;SDS011;63869;52.344;16.928;2023-05-10T02:00:34;7.57;;;3.67;;
75272;SDS011;63869;52.344;16.928;2023-05-10T02:03:01;5.50;;;3.50;;
75272;SDS011;63869;52.344;16.928;2023-05-10T02:05:31;7.75;;;3.75;;
75272;SDS011;63869;52.344;16.928;2023-05-10T02:07:58;7.20;;;4.03;;
75272;SDS011;63869;52.344;16.928;2023-05-10T02:10:26;7.03;;;4.00;;
75272;SDS011;63869;52.344;16.928;2023-05-10T02:12:52;7.45;;;3.55;;
75272;SDS011;63869;52.344;16.928;2023-05-10T02:15:20;6.43;;;3.67;;
75272;SDS011;63869;52.344;16.928;2023-05-10T02:17:48;8.18;;;4.10;;
75272;SDS011;63869;52.344;16.928;2023-05-10T02:20:14;8.20;;;4.25;;
75272;SDS011;63869;52.344;16.928;2023-05-10T02:22:42;8.18;;;3.90;;
75272;SDS011;63869;52.344;16.928;2023-05-10T02:25:08;7.72;;;3.75;;
75272;SDS011;63869;52.344;16.928;2023-05-10T02:27:36;6.03;;;4.00;;
75272;SDS011;63869;52.344;16.928;2023-05-10T02:30:02;7.90;;;4.13;;
75272;SDS011;63869;52.344;16.928;2023-05-10T02:32:29;6.85;;;4.15;;
75272;SDS011;63869;52.344;16.928;2023-05-10T02:34:55;5.55;;;3.65;;
75272;SDS011;63869;52.344;16.928;2023-05-10T02:37:21;7.05;;;4.05;;
75272;SDS011;63869;52.344;16.928;2023-05-10T02:39:50;7.25;;;3.65;;
75272;SDS011;63869;52.344;16.928;2023-05-10T02:42:19;8.02;;;3.58;;
75272;SDS011;63869;52.344;16.928;2023-05-10T02:44:47;6.35;;;3.35;;
75272;SDS011;63869;52.344;16.928;2023-05-10T02:47:14;6.15;;;3.90;;
75272;SDS011;63869;52.344;16.928;2023-05-10T02:49:39;6.30;;;3.83;;
75272;SDS011;63869;52.344;16.928;2023-05-10T02:52:05;7.88;;;3.80;;
75272;SDS011;63869;52.344;16.928;2023-05-10T02:54:34;6.93;;;3.50;;
75272;SDS011;63869;52.344;16.928;2023-05-10T02:57:06;7.50;;;3.72;;
75272;SDS011;63869;52.344;16.928;2023-05-10T02:59:32;6.65;;;3.90;;
75272;SDS011;63869;52.344;16.928;2023-05-10T03:01:59;6.82;;;4.07;;
75272;SDS011;63869;52.344;16.928;2023-05-10T03:04:25;6.70;;;3.55;;
75272;SDS011;63869;52.344;16.928;2023-05-10T03:06:50;8.05;;;3.70;;
75272;SDS011;63869;52.344;16.928;2023-05-10T03:09:16;6.55;;;3.58;;
75272;SDS011;63869;52.344;16.928;2023-05-10T03:11:55;6.47;;;3.58;;
75272;SDS011;63869;52.344;16.928;2023-05-10T03:17:00;7.78;;;4.05;;
75272;SDS011;63869;52.344;16.928;2023-05-10T03:19:32;6.80;;;3.53;;
75272;SDS011;63869;52.344;16.928;2023-05-10T03:22:06;7.65;;;3.50;;
75272;SDS011;63869;52.344;16.928;2023-05-10T03:24:35;6.35;;;3.50;;
75272;SDS011;63869;52.344;16.928;2023-05-10T03:27:01;6.35;;;3.63;;
75272;SDS011;63869;52.344;16.928;2023-05-10T03:29:29;5.32;;;3.60;;
75272;SDS011;63869;52.344;16.928;2023-05-10T03:31:57;6.82;;;4.13;;
75272;SDS011;63869;52.344;16.928;2023-05-10T03:34:24;8.90;;;3.70;;
75272;SDS011;63869;52.344;16.928;2023-05-10T03:36:50;7.22;;;3.75;;
75272;SDS011;63869;52.344;16.928;2023-05-10T03:39:15;11.63;;;4.10;;
75272;SDS011;63869;52.344;16.928;2023-05-10T03:41:40;7.85;;;3.78;;
75272;SDS011;63869;52.344;16.928;2023-05-10T03:44:06;6.68;;;3.70;;
75272;SDS011;63869;52.344;16.928;2023-05-10T03:46:31;11.27;;;3.45;;
75272;SDS011;63869;52.344;16.928;2023-05-10T03:48:56;6.00;;;3.75;;
75272;SDS011;63869;52.344;16.928;2023-05-10T03:51:22;11.43;;;4.20;;
75272;SDS011;63869;52.344;16.928;2023-05-10T03:53:47;8.48;;;4.05;;
75272;SDS011;63869;52.344;16.928;2023-05-10T03:56:12;6.28;;;4.20;;
75272;SDS011;63869;52.344;16.928;2023-05-10T03:58:38;9.20;;;3.95;;
75272;SDS011;63869;52.344;16.928;2023-05-10T04:01:03;8.27;;;3.90;;
75272;SDS011;63869;52.344;16.928;2023-05-10T04:03:29;7.32;;;3.75;;
75272;SDS011;63869;52.344;16.928;2023-05-10T04:05:58;9.57;;;3.75;;
75272;SDS011;63869;52.344;16.928;2023-05-10T04:08:25;9.57;;;4.00;;
75272;SDS011;63869;52.344;16.928;2023-05-10T04:10:50;7.53;;;4.00;;
75272;SDS011;63869;52.344;16.928;2023-05-10T04:13:15;6.95;;;4.40;;
75272;SDS011;63869;52.344;16.928;2023-05-10T04:15:41;6.55;;;3.85;;
75272;SDS011;63869;52.344;16.928;2023-05-10T04:18:06;7.35;;;3.80;;
75272;SDS011;63869;52.344;16.928;2023-05-10T04:20:32;9.60;;;3.85;;
75272;SDS011;63869;52.344;16.928;2023-05-10T04:22:58;7.10;;;3.80;;
75272;SDS011;63869;52.344;16.928;2023-05-10T04:25:23;6.88;;;4.00;;
75272;SDS011;63869;52.344;16.928;2023-05-10T04:27:48;8.32;;;4.40;;
75272;SDS011;63869;52.344;16.928;2023-05-10T04:30:14;6.72;;;4.05;;
75272;SDS011;63869;52.344;16.928;2023-05-10T04:32:39;7.15;;;4.07;;
75272;SDS011;63869;52.344;16.928;2023-05-10T04:35:04;10.80;;;3.78;;
75272;SDS011;63869;52.344;16.928;2023-05-10T04:37:30;7.63;;;3.83;;
75272;SDS011;63869;52.344;16.928;2023-05-10T04:39:56;6.55;;;4.03;;
75272;SDS011;63869;52.344;16.928;2023-05-10T04:42:21;7.65;;;3.78;;
75272;SDS011;63869;52.344;16.928;2023-05-10T04:44:46;5.97;;;3.60;;
75272;SDS011;63869;52.344;16.928;2023-05-10T04:47:11;7.45;;;4.25;;
75272;SDS011;63869;52.344;16.928;2023-05-10T04:49:38;7.60;;;3.83;;
75272;SDS011;63869;52.344;16.928;2023-05-10T04:52:03;9.50;;;4.10;;
75272;SDS011;63869;52.344;16.928;2023-05-10T04:54:28;6.07;;;3.83;;
75272;SDS011;63869;52.344;16.928;2023-05-10T04:56:55;8.75;;;4.20;;
75272;SDS011;63869;52.344;16.928;2023-05-10T04:59:20;7.00;;;3.90;;
75272;SDS011;63869;52.344;16.928;2023-05-10T05:01:46;6.43;;;3.45;;
75272;SDS011;63869;52.344;16.928;2023-05-10T05:04:11;7.25;;;3.90;;
75272;SDS011;63869;52.344;16.928;2023-05-10T05:06:36;9.20;;;3.90;;
75272;SDS011;63869;52.344;16.928;2023-05-10T05:09:01;9.50;;;4.07;;
75272;SDS011;63869;52.344;16.928;2023-05-10T05:11:27;6.07;;;3.63;;
75272;SDS011;63869;52.344;16.928;2023-05-10T05:13:52;7.10;;;4.45;;
75272;SDS011;63869;52.344;16.928;2023-05-10T05:16:18;7.22;;;3.67;;
75272;SDS011;63869;52.344;16.928;2023-05-10T05:18:43;5.80;;;3.53;;
75272;SDS011;63869;52.344;16.928;2023-05-10T05:21:15;9.20;;;4.68;;
75272;SDS011;63869;52.344;16.928;2023-05-10T05:23:41;6.90;;;3.78;;
75272;SDS011;63869;52.344;16.928;2023-05-10T05:26:06;7.22;;;3.83;;
75272;SDS011;63869;52.344;16.928;2023-05-10T05:28:31;7.30;;;3.97;;
75272;SDS011;63869;52.344;16.928;2023-05-10T05:30:59;7.65;;;3.90;;
75272;SDS011;63869;52.344;16.928;2023-05-10T05:33:25;7.35;;;4.03;;
75272;SDS011;63869;52.344;16.928;2023-05-10T05:35:50;10.20;;;3.97;;
75272;SDS011;63869;52.344;16.928;2023-05-10T05:38:16;7.55;;;3.72;;
75272;SDS011;63869;52.344;16.928;2023-05-10T05:40:42;6.70;;;3.78;;
75272;SDS011;63869;52.344;16.928;2023-05-10T05:43:07;8.30;;;3.90;;
75272;SDS011;63869;52.344;16.928;2023-05-10T05:45:32;5.10;;;3.38;;
75272;SDS011;63869;52.344;16.928;2023-05-10T05:47:58;6.20;;;3.60;;
75272;SDS011;63869;52.344;16.928;2023-05-10T05:50:25;6.90;;;4.20;;
75272;SDS011;63869;52.344;16.928;2023-05-10T05:52:50;8.43;;;4.10;;
75272;SDS011;63869;52.344;16.928;2023-05-10T05:55:16;7.90;;;3.30;;
75272;SDS011;63869;52.344;16.928;2023-05-10T05:57:41;5.88;;;3.75;;
75272;SDS011;63869;52.344;16.928;2023-05-10T06:00:06;7.10;;;3.75;;
75272;SDS011;63869;52.344;16.928;2023-05-10T06:02:32;7.60;;;3.85;;
75272;SDS011;63869;52.344;16.928;2023-05-10T06:04:57;5.32;;;3.67;;
75272;SDS011;63869;52.344;16.928;2023-05-10T06:07:23;6.30;;;3.58;;
75272;SDS011;63869;52.344;16.928;2023-05-10T06:09:48;7.53;;;4.15;;
75272;SDS011;63869;52.344;16.928;2023-05-10T06:12:14;8.65;;;3.63;;
75272;SDS011;63869;52.344;16.928;2023-05-10T06:14:39;8.38;;;4.13;;
75272;SDS011;63869;52.344;16.928;2023-05-10T06:17:04;7.53;;;3.70;;
75272;SDS011;63869;52.344;16.928;2023-05-10T06:19:30;8.40;;;3.60;;
75272;SDS011;63869;52.344;16.928;2023-05-10T06:21:55;6.10;;;3.53;;
75272;SDS011;63869;52.344;16.928;2023-05-10T06:24:21;5.45;;;3.25;;
75272;SDS011;63869;52.344;16.928;2023-05-10T06:26:46;6.30;;;3.40;;
75272;SDS011;63869;52.344;16.928;2023-05-10T06:29:12;6.15;;;3.70;;
75272;SDS011;63869;52.344;16.928;2023-05-10T06:31:37;6.30;;;3.60;;
75272;SDS011;63869;52.344;16.928;2023-05-10T06:34:02;5.63;;;3.30;;
75272;SDS011;63869;52.344;16.928;2023-05-10T06:36:27;11.48;;;3.88;;
75272;SDS011;63869;52.344;16.928;2023-05-10T06:38:53;6.35;;;3.80;;
75272;SDS011;63869;52.344;16.928;2023-05-10T06:41:18;6.75;;;3.70;;
75272;SDS011;63869;52.344;16.928;2023-05-10T06:43:43;5.47;;;3.72;;
75272;SDS011;63869;52.344;16.928;2023-05-10T06:46:09;7.07;;;3.88;;
75272;SDS011;63869;52.344;16.928;2023-05-10T06:48:34;5.55;;;3.30;;
75272;SDS011;63869;52.344;16.928;2023-05-10T06:50:59;9.43;;;3.60;;
75272;SDS011;63869;52.344;16.928;2023-05-10T06:53:25;4.97;;;3.72;;
75272;SDS011;63869;52.344;16.928;2023-05-10T06:55:50;6.00;;;3.83;;
75272;SDS011;63869;52.344;16.928;2023-05-10T06:58:15;6.95;;;3.40;;
75272;SDS011;63869;52.344;16.928;2023-05-10T07:00:41;5.45;;;3.42;;
75272;SDS011;63869;52.344;16.928;2023-05-10T07:03:09;7.13;;;3.67;;
75272;SDS011;63869;52.344;16.928;2023-05-10T07:05:35;5.20;;;3.30;;
75272;SDS011;63869;52.344;16.928;2023-05-10T07:08:00;8.85;;;3.45;;
75272;SDS011;63869;52.344;16.928;2023-05-10T07:10:25;6.47;;;3.40;;
75272;SDS011;63869;52.344;16.928;2023-05-10T07:12:51;5.82;;;3.45;;
75272;SDS011;63869;52.344;16.928;2023-05-10T07:15:16;6.97;;;3.70;;
75272;SDS011;63869;52.344;16.928;2023-05-10T07:17:42;11.18;;;3.63;;
75272;SDS011;63869;52.344;16.928;2023-05-10T07:20:08;7.95;;;3.20;;
75272;SDS011;63869;52.344;16.928;2023-05-10T07:22:33;7.85;;;3.80;;
75272;SDS011;63869;52.344;16.928;2023-05-10T07:24:58;5.10;;;3.40;;
75272;SDS011;63869;52.344;16.928;2023-05-10T07:27:24;6.47;;;3.25;;
75272;SDS011;63869;52.344;16.928;2023-05-10T07:29:50;5.82;;;3.45;;
75272;SDS011;63869;52.344;16.928;2023-05-10T07:32:15;4.72;;;3.00;;
75272;SDS011;63869;52.344;16.928;2023-05-10T07:34:41;6.75;;;3.20;;
75272;SDS011;63869;52.344;16.928;2023-05-10T07:37:06;8.80;;;3.72;;
75272;SDS011;63869;52.344;16.928;2023-05-10T07:39:32;5.68;;;2.97;;
75272;SDS011;63869;52.344;16.928;2023-05-10T07:41:57;5.07;;;3.22;;
75272;SDS011;63869;52.344;16.928;2023-05-10T07:44:23;5.03;;;2.97;;
75272;SDS011;63869;52.344;16.928;2023-05-10T07:46:48;5.93;;;3.30;;
75272;SDS011;63869;52.344;16.928;2023-05-10T07:49:14;7.95;;;3.38;;
75272;SDS011;63869;52.344;16.928;2023-05-10T07:51:39;5.85;;;2.92;;
75272;SDS011;63869;52.344;16.928;2023-05-10T07:54:05;7.60;;;3.10;;
75272;SDS011;63869;52.344;16.928;2023-05-10T07:56:31;7.97;;;3.10;;
75272;SDS011;63869;52.344;16.928;2023-05-10T07:59:00;5.95;;;3.40;;
75272;SDS011;63869;52.344;16.928;2023-05-10T08:01:32;5.15;;;2.90;;
75272;SDS011;63869;52.344;16.928;2023-05-10T08:03:58;6.03;;;3.30;;
75272;SDS011;63869;52.344;16.928;2023-05-10T08:06:23;7.18;;;3.10;;
75272;SDS011;63869;52.344;16.928;2023-05-10T08:08:51;7.28;;;3.30;;
75272;SDS011;63869;52.344;16.928;2023-05-10T08:11:18;9.10;;;3.15;;
75272;SDS011;63869;52.344;16.928;2023-05-10T08:13:45;9.15;;;3.05;;
75272;SDS011;63869;52.344;16.928;2023-05-10T08:16:11;6.03;;;3.00;;
75272;SDS011;63869;52.344;16.928;2023-05-10T08:18:36;5.90;;;2.85;;
75272;SDS011;63869;52.344;16.928;2023-05-10T08:21:02;5.93;;;3.10;;
75272;SDS011;63869;52.344;16.928;2023-05-10T08:23:28;5.22;;;2.97;;
75272;SDS011;63869;52.344;16.928;2023-05-10T08:25:53;6.07;;;2.58;;
75272;SDS011;63869;52.344;16.928;2023-05-10T08:28:18;6.78;;;2.95;;
75272;SDS011;63869;52.344;16.928;2023-05-10T08:30:43;8.40;;;3.05;;
75272;SDS011;63869;52.344;16.928;2023-05-10T08:33:09;3.97;;;2.83;;
75272;SDS011;63869;52.344;16.928;2023-05-10T08:35:34;5.25;;;2.90;;
75272;SDS011;63869;52.344;16.928;2023-05-10T08:38:00;5.20;;;2.92;;
75272;SDS011;63869;52.344;16.928;2023-05-10T08:40:25;6.35;;;2.88;;
75272;SDS011;63869;52.344;16.928;2023-05-10T08:42:53;4.75;;;2.92;;
75272;SDS011;63869;52.344;16.928;2023-05-10T08:45:23;4.95;;;3.20;;
75272;SDS011;63869;52.344;16.928;2023-05-10T08:47:50;5.05;;;2.75;;
75272;SDS011;63869;52.344;16.928;2023-05-10T08:50:17;4.60;;;2.88;;
75272;SDS011;63869;52.344;16.928;2023-05-10T08:52:45;9.27;;;3.17;;
75272;SDS011;63869;52.344;16.928;2023-05-10T08:55:13;5.25;;;2.95;;
75272;SDS011;63869;52.344;16.928;2023-05-10T08:57:39;4.15;;;2.72;;
75272;SDS011;63869;52.344;16.928;2023-05-10T09:00:04;5.72;;;2.75;;
75272;SDS011;63869;52.344;16.928;2023-05-10T09:02:30;7.20;;;2.50;;
75272;SDS011;63869;52.344;16.928;2023-05-10T09:04:56;5.88;;;2.35;;
75272;SDS011;63869;52.344;16.928;2023-05-10T09:07:21;4.47;;;2.42;;
75272;SDS011;63869;52.344;16.928;2023-05-10T09:09:47;6.32;;;2.70;;
75272;SDS011;63869;52.344;16.928;2023-05-10T09:12:13;4.90;;;2.88;;
75272;SDS011;63869;52.344;16.928;2023-05-10T09:14:40;10.63;;;2.75;;
75272;SDS011;63869;52.344;16.928;2023-05-10T09:17:07;8.05;;;3.08;;
75272;SDS011;63869;52.344;16.928;2023-05-10T09:19:32;8.27;;;2.80;;
75272;SDS011;63869;52.344;16.928;2023-05-10T09:21:58;6.93;;;2.50;;
75272;SDS011;63869;52.344;16.928;2023-05-10T09:24:25;8.10;;;2.67;;
75272;SDS011;63869;52.344;16.928;2023-05-10T09:26:51;7.22;;;2.50;;
75272;SDS011;63869;52.344;16.928;2023-05-10T09:29:17;10.13;;;2.65;;
75272;SDS011;63869;52.344;16.928;2023-05-10T09:31:47;6.55;;;2.40;;
75272;SDS011;63869;52.344;16.928;2023-05-10T09:34:20;5.35;;;2.28;;
75272;SDS011;63869;52.344;16.928;2023-05-10T09:36:55;5.25;;;2.28;;
75272;SDS011;63869;52.344;16.928;2023-05-10T09:39:35;6.70;;;2.40;;
75272;SDS011;63869;52.344;16.928;2023-05-10T09:42:08;6.35;;;2.40;;
75272;SDS011;63869;52.344;16.928;2023-05-10T09:44:35;5.15;;;2.28;;
75272;SDS011;63869;52.344;16.928;2023-05-10T09:47:01;4.45;;;2.10;;
75272;SDS011;63869;52.344;16.928;2023-05-10T09:49:27;4.75;;;2.40;;
75272;SDS011;63869;52.344;16.928;2023-05-10T09:52:00;5.60;;;2.28;;
75272;SDS011;63869;52.344;16.928;2023-05-10T09:54:27;3.35;;;1.98;;
75272;SDS011;63869;52.344;16.928;2023-05-10T09:56:52;11.35;;;2.58;;
75272;SDS011;63869;52.344;16.928;2023-05-10T09:59:18;9.32;;;2.30;;
75272;SDS011;63869;52.344;16.928;2023-05-10T10:01:44;6.00;;;2.20;;
75272;SDS011;63869;52.344;16.928;2023-05-10T10:04:14;4.22;;;2.10;;
75272;SDS011;63869;52.344;16.928;2023-05-10T10:06:40;7.88;;;2.53;;
75272;SDS011;63869;52.344;16.928;2023-05-10T10:09:05;9.15;;;2.45;;
75272;SDS011;63869;52.344;16.928;2023-05-10T10:11:33;30.90;;;3.50;;
75272;SDS011;63869;52.344;16.928;2023-05-10T10:14:00;12.52;;;2.20;;
75272;SDS011;63869;52.344;16.928;2023-05-10T10:16:26;9.55;;;3.10;;
75272;SDS011;63869;52.344;16.928;2023-05-10T10:18:53;9.85;;;2.38;;
75272;SDS011;63869;52.344;16.928;2023-05-10T10:21:19;10.77;;;2.83;;
75272;SDS011;63869;52.344;16.928;2023-05-10T10:23:45;5.55;;;2.22;;
75272;SDS011;63869;52.344;16.928;2023-05-10T10:26:11;6.00;;;1.90;;
75272;SDS011;63869;52.344;16.928;2023-05-10T10:31:36;9.15;;;2.35;;
75272;SDS011;63869;52.344;16.928;2023-05-10T10:34:07;6.15;;;2.20;;
75272;SDS011;63869;52.344;16.928;2023-05-10T10:36:44;4.95;;;2.33;;
75272;SDS011;63869;52.344;16.928;2023-05-10T10:39:11;7.25;;;2.20;;
75272;SDS011;63869;52.344;16.928;2023-05-10T10:41:41;3.95;;;2.10;;
75272;SDS011;63869;52.344;16.928;2023-05-10T10:47:03;5.45;;;2.38;;
75272;SDS011;63869;52.344;16.928;2023-05-10T10:49:49;6.40;;;2.10;;
75272;SDS011;63869;52.344;16.928;2023-05-10T10:52:23;5.43;;;2.10;;
75272;SDS011;63869;52.344;16.928;2023-05-10T10:58:09;5.25;;;2.15;;
75272;SDS011;63869;52.344;16.928;2023-05-10T11:00:30;2.90;;;2.00;;
75272;SDS011;63869;52.344;16.928;2023-05-10T11:05:38;3.72;;;2.35;;
75272;SDS011;63869;52.344;16.928;2023-05-10T11:08:07;3.38;;;2.25;;
75272;SDS011;63869;52.344;16.928;2023-05-10T11:10:32;3.10;;;1.90;;
75272;SDS011;63869;52.344;16.928;2023-05-10T11:13:06;3.25;;;2.10;;
75272;SDS011;63869;52.344;16.928;2023-05-10T11:18:18;3.05;;;2.10;;
75272;SDS011;63869;52.344;16.928;2023-05-10T11:20:49;3.42;;;2.10;;
75272;SDS011;63869;52.344;16.928;2023-05-10T11:23:16;4.75;;;2.10;;
75272;SDS011;63869;52.344;16.928;2023-05-10T11:25:43;3.90;;;2.42;;
75272;SDS011;63869;52.344;16.928;2023-05-10T11:28:09;4.15;;;2.08;;
75272;SDS011;63869;52.344;16.928;2023-05-10T11:30:35;5.05;;;2.60;;
75272;SDS011;63869;52.344;16.928;2023-05-10T11:33:01;3.22;;;2.28;;
75272;SDS011;63869;52.344;16.928;2023-05-10T11:35:27;5.82;;;2.40;;
75272;SDS011;63869;52.344;16.928;2023-05-10T11:37:53;4.32;;;2.40;;
75272;SDS011;63869;52.344;16.928;2023-05-10T11:40:18;4.75;;;2.78;;
75272;SDS011;63869;52.344;16.928;2023-05-10T11:42:44;4.30;;;2.45;;
75272;SDS011;63869;52.344;16.928;2023-05-10T11:45:10;3.63;;;2.50;;
75272;SDS011;63869;52.344;16.928;2023-05-10T11:47:36;3.67;;;2.20;;
75272;SDS011;63869;52.344;16.928;2023-05-10T11:50:02;3.25;;;2.30;;
75272;SDS011;63869;52.344;16.928;2023-05-10T11:52:27;3.67;;;2.30;;
75272;SDS011;63869;52.344;16.928;2023-05-10T11:54:54;2.58;;;2.10;;
75272;SDS011;63869;52.344;16.928;2023-05-10T11:57:20;5.20;;;2.10;;
75272;SDS011;63869;52.344;16.928;2023-05-10T11:59:53;4.43;;;2.25;;
75272;SDS011;63869;52.344;16.928;2023-05-10T12:02:20;5.78;;;2.20;;
75272;SDS011;63869;52.344;16.928;2023-05-10T12:04:45;3.38;;;2.20;;
75272;SDS011;63869;52.344;16.928;2023-05-10T12:07:11;4.28;;;2.15;;
75272;SDS011;63869;52.344;16.928;2023-05-10T12:09:36;4.57;;;2.30;;
75272;SDS011;63869;52.344;16.928;2023-05-10T12:12:02;3.70;;;2.10;;
75272;SDS011;63869;52.344;16.928;2023-05-10T12:14:27;4.90;;;2.10;;
75272;SDS011;63869;52.344;16.928;2023-05-10T12:16:53;3.40;;;2.10;;
75272;SDS011;63869;52.344;16.928;2023-05-10T12:19:19;3.95;;;2.03;;
75272;SDS011;63869;52.344;16.928;2023-05-10T12:21:48;6.00;;;2.08;;
75272;SDS011;63869;52.344;16.928;2023-05-10T12:24:13;5.40;;;2.20;;
75272;SDS011;63869;52.344;16.928;2023-05-10T12:26:41;4.65;;;3.03;;
75272;SDS011;63869;52.344;16.928;2023-05-10T12:29:13;6.65;;;2.35;;
75272;SDS011;63869;52.344;16.928;2023-05-10T12:31:48;4.70;;;2.20;;
75272;SDS011;63869;52.344;16.928;2023-05-10T12:34:25;4.38;;;2.00;;
75272;SDS011;63869;52.344;16.928;2023-05-10T12:36:54;5.57;;;2.40;;
75272;SDS011;63869;52.344;16.928;2023-05-10T12:39:20;5.15;;;2.17;;
75272;SDS011;63869;52.344;16.928;2023-05-10T12:41:46;3.28;;;2.15;;
75272;SDS011;63869;52.344;16.928;2023-05-10T12:44:12;3.70;;;1.95;;
75272;SDS011;63869;52.344;16.928;2023-05-10T12:46:37;4.13;;;2.40;;
75272;SDS011;63869;52.344;16.928;2023-05-10T12:49:02;5.37;;;2.03;;
75272;SDS011;63869;52.344;16.928;2023-05-10T12:51:28;4.33;;;2.47;;
75272;SDS011;63869;52.344;16.928;2023-05-10T12:53:53;14.50;;;3.10;;
75272;SDS011;63869;52.344;16.928;2023-05-10T12:56:19;5.38;;;2.33;;
75272;SDS011;63869;52.344;16.928;2023-05-10T12:58:45;5.60;;;2.20;;
75272;SDS011;63869;52.344;16.928;2023-05-10T13:01:13;4.70;;;2.20;;
75272;SDS011;63869;52.344;16.928;2023-05-10T13:03:40;4.13;;;2.20;;
75272;SDS011;63869;52.344;16.928;2023-05-10T13:06:05;9.85;;;2.30;;
75272;SDS011;63869;52.344;16.928;2023-05-10T13:08:34;9.73;;;2.50;;
75272;SDS011;63869;52.344;16.928;2023-05-10T13:11:00;6.85;;;2.40;;
75272;SDS011;63869;52.344;16.928;2023-05-10T13:13:26;12.02;;;2.47;;
75272;SDS011;63869;52.344;16.928;2023-05-10T13:15:51;5.57;;;2.10;;
75272;SDS011;63869;52.344;16.928;2023-05-10T13:18:17;5.95;;;2.30;;
75272;SDS011;63869;52.344;16.928;2023-05-10T13:20:42;8.23;;;2.40;;
75272;SDS011;63869;52.344;16.928;2023-05-10T13:23:09;14.55;;;2.78;;
75272;SDS011;63869;52.344;16.928;2023-05-10T13:25:35;7.80;;;2.35;;
75272;SDS011;63869;52.344;16.928;2023-05-10T13:28:00;7.55;;;2.40;;
75272;SDS011;63869;52.344;16.928;2023-05-10T13:30:26;4.60;;;2.50;;
75272;SDS011;63869;52.344;16.928;2023-05-10T13:32:51;5.40;;;2.47;;
75272;SDS011;63869;52.344;16.928;2023-05-10T13:35:17;3.95;;;2.08;;
75272;SDS011;63869;52.344;16.928;2023-05-10T13:37:42;4.82;;;2.60;;
75272;SDS011;63869;52.344;16.928;2023-05-10T13:40:08;5.82;;;2.67;;
75272;SDS011;63869;52.344;16.928;2023-05-10T13:42:33;5.70;;;2.40;;
75272;SDS011;63869;52.344;16.928;2023-05-10T13:44:59;3.95;;;2.38;;
75272;SDS011;63869;52.344;16.928;2023-05-10T13:47:25;6.25;;;2.38;;
75272;SDS011;63869;52.344;16.928;2023-05-10T13:49:51;5.80;;;2.30;;
75272;SDS011;63869;52.344;16.928;2023-05-10T13:52:16;3.17;;;2.10;;
75272;SDS011;63869;52.344;16.928;2023-05-10T13:54:42;3.97;;;2.17;;
75272;SDS011;63869;52.344;16.928;2023-05-10T13:57:07;4.88;;;2.10;;
75272;SDS011;63869;52.344;16.928;2023-05-10T13:59:33;3.72;;;2.55;;
75272;SDS011;63869;52.344;16.928;2023-05-10T14:01:59;3.20;;;2.45;;
75272;SDS011;63869;52.344;16.928;2023-05-10T14:04:25;2.88;;;2.10;;
75272;SDS011;63869;52.344;16.928;2023-05-10T14:06:50;7.70;;;2.70;;
75272;SDS011;63869;52.344;16.928;2023-05-10T14:09:15;5.65;;;2.30;;
75272;SDS011;63869;52.344;16.928;2023-05-10T14:11:41;5.80;;;2.70;;
75272;SDS011;63869;52.344;16.928;2023-05-10T14:14:08;7.32;;;3.70;;
75272;SDS011;63869;52.344;16.928;2023-05-10T14:16:34;7.28;;;4.40;;
75272;SDS011;63869;52.344;16.928;2023-05-10T14:19:00;6.72;;;4.28;;
75272;SDS011;63869;52.344;16.928;2023-05-10T14:21:25;6.17;;;3.77;;
75272;SDS011;63869;52.344;16.928;2023-05-10T14:23:50;5.90;;;3.20;;
75272;SDS011;63869;52.344;16.928;2023-05-10T14:26:16;5.23;;;3.37;;
75272;SDS011;63869;52.344;16.928;2023-05-10T14:28:41;7.15;;;3.42;;
75272;SDS011;63869;52.344;16.928;2023-05-10T14:31:08;7.55;;;3.17;;
75272;SDS011;63869;52.344;16.928;2023-05-10T14:33:33;4.65;;;2.65;;
75272;SDS011;63869;52.344;16.928;2023-05-10T14:35:58;3.67;;;2.60;;
75272;SDS011;63869;52.344;16.928;2023-05-10T14:38:24;3.90;;;2.83;;
75272;SDS011;63869;52.344;16.928;2023-05-10T14:40:50;6.10;;;2.60;;
75272;SDS011;63869;52.344;16.928;2023-05-10T14:43:15;4.37;;;2.77;;
75272;SDS011;63869;52.344;16.928;2023-05-10T14:45:40;7.00;;;2.93;;
75272;SDS011;63869;52.344;16.928;2023-05-10T14:48:06;11.18;;;2.90;;
75272;SDS011;63869;52.344;16.928;2023-05-10T14:50:36;5.88;;;2.85;;
75272;SDS011;63869;52.344;16.928;2023-05-10T14:53:02;5.15;;;3.13;;
75272;SDS011;63869;52.344;16.928;2023-05-10T14:55:28;4.15;;;2.78;;
75272;SDS011;63869;52.344;16.928;2023-05-10T14:57:53;4.10;;;2.90;;